Nearby METAR Reports

 

KSJC - San Jose, California, USA
Distance from station: NE 9mi, 14km
Updated: Tue, Oct-15-2019 3:53pm CDT
Few Clouds
Few Clouds
 Wind from varies
Wind: varies 6 mph , 9 km/h
Temperature: 66°F , 19°C
Dew Point: 54°F , 12°C
Humidity: 64%
Barometer: 30.07 inHg , 1018.3 hPa
Clouds: Few Clouds
Visibility: 8 miles , 13 km
Cloud details: Few Clouds 900 ft
2019/10/15 20:53 KSJC 152053Z VRB05KT 8SM FEW009 19/12 A3007 RMK AO2 SLP181 T01890117 58017
KNUQ - Moffett Nas/Mtn, California, USA
Distance from station: N 9mi, 14km
Updated: Tue, Oct-15-2019 3:56pm CDT

 
Barometer: 30.08 inHg , 1018.6 hPa
2019/10/15 20:56 KNUQ 152056Z A3008 RMK AO2 SLP190 58017 PWINO $
 
KPAO - Palo Alto, California, USA
Distance from station: NNW 14mi, 23km
Updated: Tue, Oct-15-2019 3:47pm CDT
Few Clouds
Few Clouds
 Wind from N
Wind: N 9 mph , 15 km/h
Temperature: 61°F , 16°C
Dew Point: 52°F , 11°C
Humidity: 72%
Barometer: 30.08 inHg , 1018.6 hPa
Clouds: Few Clouds
Visibility: 10 miles , 16 km
Cloud details: Few Clouds 1000 ft
2019/10/15 20:47 KPAO 152047Z 35008KT 10SM FEW010 16/11 A3008
KRHV - San Jose/Reid, California, USA
Distance from station: ENE 12mi, 19km
Updated: Tue, Oct-15-2019 3:55pm CDT
Haze, Few clouds
Haze, Few clouds
 Wind from NW
Wind: NW 7 mph , 11 km/h
Temperature: 66°F , 19°C
Dew Point: 52°F , 11°C
Humidity: 60%
Barometer: 30.07 inHg , 1018.3 hPa
Summary: Haze
Clouds: Few Clouds
Visibility: 5 miles , 8 km
Cloud details: Few Clouds 1000 ft
2019/10/15 20:55 KRHV 152055Z 32006KT 5SM HZ FEW010 19/11 A3007
 
KOAK - Oakland, California, USA
Distance from station: NNW 31mi, 50km
Updated: Tue, Oct-15-2019 3:53pm CDT
Few Clouds
Few Clouds
 Wind from W
Wind: W 8 mph , 13 km/h
Temperature: 61°F , 16°C
Dew Point: 48°F , 9°C
Humidity: 63%
Barometer: 30.08 inHg , 1018.6 hPa
Clouds: Few Clouds
Visibility: 10 miles , 16 km
Cloud details: Few Clouds 1100 ft
2019/10/15 20:53 KOAK 152053Z 27007KT 10SM FEW011 16/09 A3008 RMK AO2 SLP184 T01560094 58020
KSQL - San Carlos Airpo, California, USA
Distance from station: NW 21mi, 34km
Updated: Tue, Oct-15-2019 3:49pm CDT
Haze, Few clouds
Haze, Few clouds
 Wind from N
Wind: N 7 mph , 11 km/h
Temperature: 59°F , 15°C
Dew Point: 50°F , 10°C
Humidity: 72%
Barometer: 30.08 inHg , 1018.6 hPa
Summary: Haze
Clouds: Few Clouds
Visibility: 6 miles , 10 km
Cloud details: Few Clouds 1400 ft
2019/10/15 20:49 KSQL 152049Z 01006KT 6SM HZ FEW014 15/10 A3008
 
KSFO - San Francisco, California, USA
Distance from station: NW 30mi, 49km
Updated: Tue, Oct-15-2019 3:56pm CDT
Few Clouds
Few Clouds
 Wind from NNE
Wind: NNE 6 mph , 9 km/h
Temperature: 61°F , 16°C
Dew Point: 48°F , 9°C
Humidity: 63%
Barometer: 30.07 inHg , 1018.3 hPa
Clouds: Few Clouds
Visibility: 9 miles , 14 km
Cloud details: Few Clouds 1100 ft
Few Clouds 20000 ft
2019/10/15 20:56 KSFO 152056Z 03005KT 9SM FEW011 FEW200 16/09 A3007 RMK AO2 SLP181 T01610094 58022
KE16 - San Martin, California, USA
Distance from station: ESE 27mi, 43km
Updated: Tue, Oct-15-2019 4:15pm CDT
Clear
Clear
 Wind from NW
Wind: NW 10 mph , 17 km/h, Gust: 17 mph , 28 km/h
Temperature: 75°F , 24°C
Dew Point: 46°F , 8°C
Humidity: 36%
Barometer: 30.04 inHg , 1017.3 hPa
Clouds: Clear
Visibility: 10 miles , 16 km
2019/10/15 21:15 KE16 152115Z AUTO 32009G15KT 10SM CLR 24/08 A3004 RMK AO2
 
KWVI - Watsonville, California, USA
Distance from station: SSE 27mi, 44km
Updated: Tue, Oct-15-2019 3:53pm CDT
Clear
Clear
 Wind from S
Wind: S 7 mph , 11 km/h
Temperature: 66°F , 19°C
Dew Point: 50°F , 10°C
Humidity: 56%
Barometer: 30.05 inHg , 1017.6 hPa
Clouds: Clear
Visibility: 10 miles , 16 km
2019/10/15 20:53 KWVI 152053Z AUTO 18006KT 10SM CLR 19/10 A3005 RMK AO2 SLP175 T01890100 58027
KHAF - Half Moon Bay, California, USA
Distance from station: WNW 31mi, 50km
Updated: Tue, Oct-15-2019 4:20pm CDT
Clear
Clear
 Wind from NW
Wind: NW 14 mph , 22 km/h
Temperature: 57°F , 14°C
Dew Point: 48°F , 9°C
Humidity: 72%
Barometer: 30.06 inHg , 1017.9 hPa
Clouds: Clear
Visibility: 8 miles , 13 km
2019/10/15 21:20 KHAF 152120Z AUTO 32012KT 8SM CLR 14/09 A3006 RMK AO2
 
KHWD - Hayward, California, USA
Distance from station: N 28mi, 44km
Updated: Tue, Oct-15-2019 3:54pm CDT
Clear
Clear
 Wind from WSW
Wind: WSW 8 mph , 13 km/h
Temperature: 61°F , 16°C
Dew Point: 50°F , 10°C
Humidity: 68%
Barometer: 30.07 inHg , 1018.3 hPa
Clouds: Clear
Visibility: 8 miles , 13 km
2019/10/15 20:54 KHWD 152054Z 25007KT 8SM CLR 16/10 A3007 RMK AO2 SLP192 T01610100 58018
KLVK - Livermore, California, USA
Distance from station: NNE 31mi, 51km
Updated: Tue, Oct-15-2019 3:53pm CDT
Clear
Clear
 Wind from SW
Wind: SW 8 mph , 13 km/h
Temperature: 75°F , 24°C
Dew Point: 45°F , 7°C
Humidity: 34%
Barometer: 30.04 inHg , 1017.3 hPa
Clouds: Clear
Visibility: 10 miles , 16 km
2019/10/15 20:53 KLVK 152053Z 22007KT 10SM CLR 24/07 A3004 RMK AO2 SLP170 T02440067 58019